Time;durP1;ratioP1;P1;durP2;ratioP2;P2;SDS_P1;SDS_P2;PMS_P1;PMS_P2;Temp;Humidity;BMP_temperature;BMP_pressure;BME280_temperature;BME280_humidity;BME280_pressure;Samples;Min_cycle;Max_cycle;Signal;HPM_P1;HPM_P2
2021/01/12 00:00:21;;;;;;;2.03;1.30;;;-3.90;99.90;;;;;;4978023;28;20210;-69
2021/01/12 00:02:49;;;;;;;1.92;1.30;;;-4.00;99.90;;;;;;4975250;28;20890;-70
2021/01/12 00:05:16;;;;;;;1.30;1.20;;;-4.10;99.90;;;;;;4978880;28;20242;-69
2021/01/12 00:07:41;;;;;;;2.35;1.33;;;-4.00;99.90;;;;;;4969064;28;20733;-69
2021/01/12 00:10:07;;;;;;;1.30;1.20;;;-4.00;99.90;;;;;;4972528;28;20206;-69
2021/01/12 00:12:34;;;;;;;1.48;1.30;;;-4.00;99.90;;;;;;4976797;28;20235;-69
2021/01/12 00:15:00;;;;;;;3.53;1.50;;;-4.00;99.90;;;;;;4972854;28;20196;-69
2021/01/12 00:17:26;;;;;;;1.40;1.20;;;-4.10;99.90;;;;;;4973002;28;20210;-68
2021/01/12 00:19:51;;;;;;;2.83;1.45;;;-4.10;99.90;;;;;;4972902;28;20216;-70
2021/01/12 00:22:18;;;;;;;1.90;1.40;;;-4.10;99.90;;;;;;4975101;28;20206;-68
2021/01/12 00:24:48;;;;;;;2.75;1.40;;;-4.10;99.90;;;;;;4972919;28;20196;-69
2021/01/12 00:27:16;;;;;;;2.63;1.45;;;-4.10;99.90;;;;;;4974343;28;20235;-69
2021/01/12 00:29:42;;;;;;;2.88;1.70;;;-4.20;99.90;;;;;;4971770;28;20273;-70
2021/01/12 00:32:08;;;;;;;2.70;1.60;;;-4.30;99.90;;;;;;4972223;28;20211;-69
2021/01/12 00:34:34;;;;;;;2.75;1.65;;;-4.30;99.90;;;;;;4973039;28;20199;-69
2021/01/12 00:37:00;;;;;;;1.92;1.40;;;-4.30;99.90;;;;;;4970222;28;20206;-68
2021/01/12 00:39:26;;;;;;;3.30;1.70;;;-4.50;99.90;;;;;;4971845;28;20208;-69
2021/01/12 00:41:55;;;;;;;2.38;1.60;;;-4.50;99.90;;;;;;4973641;28;20282;-69
2021/01/12 00:44:24;;;;;;;1.70;1.40;;;-4.50;99.90;;;;;;4971012;28;20299;-69
2021/01/12 00:46:50;;;;;;;2.40;1.70;;;-4.70;99.90;;;;;;4989093;28;20235;-69
2021/01/12 00:49:19;;;;;;;2.35;1.58;;;-4.70;99.90;;;;;;4974071;28;20207;-69
2021/01/12 00:51:45;;;;;;;2.75;1.75;;;-4.90;99.90;;;;;;4971383;28;20639;-68
2021/01/12 00:54:13;;;;;;;1.42;1.23;;;-5.00;99.90;;;;;;4973793;28;20200;-69
2021/01/12 00:56:39;;;;;;;2.53;1.67;;;-5.10;99.90;;;;;;4973170;28;20216;-69
2021/01/12 00:59:05;;;;;;;2.72;1.73;;;-5.10;99.90;;;;;;4971730;28;20199;-68
2021/01/12 01:01:31;;;;;;;2.92;1.63;;;-5.20;99.90;;;;;;4972514;28;20207;-68
2021/01/12 01:03:57;;;;;;;2.05;1.48;;;-5.30;99.90;;;;;;4970417;28;20203;-67
2021/01/12 01:06:23;;;;;;;2.85;1.48;;;-5.30;99.90;;;;;;4972680;28;20310;-70
2021/01/12 01:08:49;;;;;;;2.20;1.50;;;-5.40;99.90;;;;;;4975332;28;20303;-68
2021/01/12 01:11:15;;;;;;;2.53;1.50;;;-5.50;99.90;;;;;;4974113;28;20726;-68
2021/01/12 01:13:41;;;;;;;3.00;1.63;;;-5.50;99.90;;;;;;4972499;28;21390;-70
2021/01/12 01:16:07;;;;;;;2.13;1.52;;;-5.50;99.90;;;;;;4973486;28;20218;-69
2021/01/12 01:18:33;;;;;;;3.45;1.67;;;-5.50;99.90;;;;;;4972985;28;20200;-70
2021/01/12 01:20:59;;;;;;;1.95;1.48;;;-5.60;99.90;;;;;;4972018;28;20195;-68
2021/01/12 01:23:25;;;;;;;2.75;1.45;;;-5.70;99.90;;;;;;4975091;28;20214;-70
2021/01/12 01:25:51;;;;;;;2.78;1.50;;;-5.80;99.90;;;;;;4974400;28;21053;-68
2021/01/12 01:28:21;;;;;;;2.53;1.52;;;-5.80;99.90;;;;;;4968197;28;20234;-69
2021/01/12 01:30:47;;;;;;;1.52;1.40;;;-5.90;99.90;;;;;;4977961;28;20673;-69
2021/01/12 01:33:13;;;;;;;1.35;1.23;;;-5.90;99.90;;;;;;4975256;28;20274;-69
2021/01/12 01:35:39;;;;;;;2.67;1.60;;;-6.00;99.90;;;;;;4969021;28;20688;-70
2021/01/12 01:38:05;;;;;;;2.10;1.50;;;-6.10;99.90;;;;;;4977232;28;20777;-69
2021/01/12 01:40:31;;;;;;;1.33;1.20;;;-6.20;99.90;;;;;;4971674;28;20231;-68
2021/01/12 01:42:57;;;;;;;2.20;1.40;;;-6.20;99.90;;;;;;4967259;28;20192;-70
2021/01/12 01:45:24;;;;;;;2.30;1.40;;;-6.30;99.90;;;;;;4972736;28;20274;-69
2021/01/12 01:47:50;;;;;;;1.40;1.30;;;-6.40;99.90;;;;;;4977055;28;20221;-69
2021/01/12 01:50:20;;;;;;;1.45;1.30;;;-6.40;99.90;;;;;;4970401;28;20206;-69
2021/01/12 01:52:53;;;;;;;1.30;1.20;;;-6.40;99.90;;;;;;4971783;28;20195;-69
2021/01/12 01:55:20;;;;;;;1.25;1.10;;;-6.50;99.90;;;;;;4970431;28;20287;-69
2021/01/12 01:57:46;;;;;;;1.80;1.50;;;-6.60;99.90;;;;;;4973434;28;20199;-69
2021/01/12 02:00:15;;;;;;;1.35;1.20;;;-6.50;99.90;;;;;;4972529;28;20207;-69
2021/01/12 02:05:40;;;;;;;1.40;1.30;;;-6.60;99.90;;;;;;4949871;23;20244;-77
2021/01/12 02:08:10;;;;;;;3.50;1.37;;;-6.70;99.90;;;;;;4957656;28;20220;-76
2021/01/12 02:10:40;;;;;;;1.67;1.40;;;-6.80;99.90;;;;;;4961675;28;20214;-75
2021/01/12 02:13:09;;;;;;;1.00;1.00;;;-6.80;99.90;;;;;;4960922;28;20211;-76
2021/01/12 02:15:36;;;;;;;1.67;1.23;;;-6.80;99.90;;;;;;4975954;28;20218;-76
2021/01/12 02:18:02;;;;;;;1.20;1.10;;;-6.80;99.90;;;;;;4963806;28;20535;-76
2021/01/12 02:20:28;;;;;;;1.30;1.20;;;-6.80;99.90;;;;;;4959745;28;20204;-75
2021/01/12 02:23:02;;;;;;;1.80;1.30;;;-6.90;99.90;;;;;;4963993;28;20205;-76
2021/01/12 02:25:38;;;;;;;1.30;1.20;;;-6.90;99.90;;;;;;4963284;28;20274;-75
2021/01/12 02:28:07;;;;;;;1.10;1.10;;;-7.00;99.90;;;;;;4962663;28;20253;-77
2021/01/12 02:30:34;;;;;;;1.73;1.40;;;-7.10;99.90;;;;;;4975171;28;20235;-77
2021/01/12 02:33:00;;;;;;;1.40;1.30;;;-7.00;99.90;;;;;;4964310;28;20205;-76
2021/01/12 02:35:27;;;;;;;1.10;1.00;;;-7.10;99.90;;;;;;4956314;28;20201;-76
2021/01/12 02:37:55;;;;;;;1.70;1.23;;;-7.20;99.90;;;;;;4958387;28;20204;-75
2021/01/12 02:40:21;;;;;;;1.23;1.13;;;-7.30;99.90;;;;;;4959590;28;20219;-75
2021/01/12 02:42:46;;;;;;;1.77;1.17;;;-7.30;99.90;;;;;;4960193;28;20651;-76
2021/01/12 02:45:13;;;;;;;1.03;1.00;;;-7.30;99.90;;;;;;4959191;28;20206;-75
2021/01/12 02:47:39;;;;;;;1.10;1.10;;;-7.20;99.90;;;;;;4966053;28;21030;-76
2021/01/12 02:50:06;;;;;;;1.10;1.00;;;-7.20;99.90;;;;;;4965907;28;20198;-76
2021/01/12 02:52:32;;;;;;;1.33;1.10;;;-7.30;99.90;;;;;;4964886;28;20204;-75
2021/01/12 02:54:58;;;;;;;1.77;1.00;;;-7.30;99.90;;;;;;4965688;28;20262;-75
2021/01/12 02:57:24;;;;;;;1.30;1.20;;;-7.40;99.90;;;;;;4966221;28;20206;-76
2021/01/12 02:59:49;;;;;;;1.00;1.00;;;-7.50;99.90;;;;;;4966427;28;20210;-76
2021/01/12 03:02:15;;;;;;;1.13;1.10;;;-7.50;99.90;;;;;;4960760;28;20196;-76
2021/01/12 03:04:41;;;;;;;2.10;1.30;;;-7.50;99.90;;;;;;4966376;28;20246;-77
2021/01/12 03:07:07;;;;;;;1.70;1.20;;;-7.60;99.90;;;;;;4962226;28;20204;-76
2021/01/12 03:09:33;;;;;;;3.03;1.23;;;-7.60;99.90;;;;;;4967226;28;20283;-76
2021/01/12 03:11:58;;;;;;;1.33;1.10;;;-7.60;99.90;;;;;;4963581;28;20220;-76
2021/01/12 03:14:24;;;;;;;1.30;1.20;;;-7.70;99.90;;;;;;4965277;28;20627;-76
2021/01/12 03:16:53;;;;;;;1.30;1.20;;;-7.80;99.90;;;;;;4954270;28;21046;-76
2021/01/12 03:19:19;;;;;;;1.10;1.10;;;-7.90;99.90;;;;;;4963356;28;20274;-76
2021/01/12 03:21:45;;;;;;;1.53;1.20;;;-7.90;99.90;;;;;;4962608;28;20211;-76
2021/01/12 03:24:11;;;;;;;1.43;1.20;;;-7.90;99.90;;;;;;4960435;28;20199;-76
2021/01/12 03:26:37;;;;;;;1.10;1.10;;;-8.00;99.90;;;;;;4964284;28;20823;-76
2021/01/12 03:29:03;;;;;;;1.20;1.10;;;-8.00;99.90;;;;;;4965553;28;20211;-76
2021/01/12 03:31:29;;;;;;;1.77;1.20;;;-8.10;99.90;;;;;;4960742;28;20196;-76
2021/01/12 03:33:55;;;;;;;1.30;1.20;;;-8.10;99.90;;;;;;4964695;28;20196;-76
2021/01/12 03:36:22;;;;;;;1.30;1.20;;;-8.00;99.90;;;;;;4962959;28;20219;-76
2021/01/12 03:38:48;;;;;;;1.00;1.00;;;-8.00;99.90;;;;;;4965008;28;20297;-75
2021/01/12 03:41:14;;;;;;;1.27;1.17;;;-8.10;99.90;;;;;;4963880;28;20204;-75
2021/01/12 03:43:40;;;;;;;1.10;1.00;;;-8.00;99.90;;;;;;4963072;28;20251;-75
2021/01/12 03:46:06;;;;;;;1.27;1.10;;;-8.00;99.90;;;;;;4965005;28;20236;-76
2021/01/12 03:48:31;;;;;;;1.27;1.00;;;-8.00;99.90;;;;;;4964073;28;20292;-75
2021/01/12 03:50:57;;;;;;;1.27;1.10;;;-8.10;99.90;;;;;;4963900;28;20989;-75
2021/01/12 03:53:23;;;;;;;1.30;1.20;;;-8.10;99.90;;;;;;4964787;28;20196;-76
2021/01/12 03:55:49;;;;;;;1.63;1.20;;;-8.10;99.90;;;;;;4962935;28;20719;-75
2021/01/12 03:58:14;;;;;;;1.30;1.10;;;-8.30;99.90;;;;;;4961905;28;20295;-75
2021/01/12 04:00:40;;;;;;;1.20;1.10;;;-8.30;99.90;;;;;;4963772;28;21916;-75
2021/01/12 04:03:06;;;;;;;1.27;1.13;;;-8.40;99.90;;;;;;4961987;28;20283;-75
2021/01/12 04:05:32;;;;;;;1.57;1.27;;;-8.40;99.90;;;;;;4960230;28;20224;-75
2021/01/12 04:08:00;;;;;;;1.20;1.10;;;-8.50;99.90;;;;;;4957187;28;20212;-75
2021/01/12 04:10:26;;;;;;;1.30;1.20;;;-8.50;99.90;;;;;;4957471;28;20204;-76
2021/01/12 04:12:52;;;;;;;1.20;1.10;;;-8.60;99.90;;;;;;4966734;28;20207;-76
2021/01/12 04:15:17;;;;;;;2.20;1.10;;;-8.70;99.90;;;;;;4964899;28;20216;-75
2021/01/12 04:17:43;;;;;;;1.20;1.10;;;-8.80;99.90;;;;;;4965364;28;20198;-76
2021/01/12 04:20:10;;;;;;;1.60;1.30;;;-8.90;99.90;;;;;;4966051;28;20200;-76
2021/01/12 04:22:36;;;;;;;1.37;1.20;;;-8.90;99.90;;;;;;4957696;28;20237;-76
2021/01/12 04:25:04;;;;;;;1.23;1.10;;;-8.80;99.90;;;;;;4964515;28;20219;-76
2021/01/12 04:27:30;;;;;;;1.53;1.23;;;-8.80;99.90;;;;;;4963907;28;20673;-76
2021/01/12 04:29:56;;;;;;;1.30;1.20;;;-8.90;99.90;;;;;;4960531;28;20343;-76
2021/01/12 04:32:21;;;;;;;1.20;1.10;;;-9.00;99.90;;;;;;4960619;28;20204;-75
2021/01/12 04:34:47;;;;;;;1.30;1.20;;;-9.00;99.90;;;;;;4961059;28;20211;-77
2021/01/12 04:37:13;;;;;;;1.60;1.10;;;-9.00;99.90;;;;;;4965039;28;20204;-76
2021/01/12 04:39:38;;;;;;;1.10;1.00;;;-9.00;99.90;;;;;;4960393;28;20216;-76
2021/01/12 04:42:04;;;;;;;1.33;1.20;;;-9.10;99.90;;;;;;4965223;28;20205;-75
2021/01/12 04:44:30;;;;;;;1.30;1.20;;;-9.00;99.90;;;;;;4964766;28;20203;-75
2021/01/12 04:46:56;;;;;;;1.33;1.20;;;-9.00;99.90;;;;;;4965472;28;20314;-76
2021/01/12 04:49:22;;;;;;;1.53;1.33;;;-9.00;99.90;;;;;;4961268;28;20283;-75
2021/01/12 04:51:48;;;;;;;4.00;1.30;;;-9.00;99.90;;;;;;4965342;28;20221;-76
2021/01/12 04:54:13;;;;;;;1.30;1.20;;;-9.10;99.90;;;;;;4980379;28;20200;-76
2021/01/12 04:56:39;;;;;;;1.57;1.40;;;-9.10;99.90;;;;;;4962704;28;20686;-76
2021/01/12 04:59:04;;;;;;;1.60;1.30;;;-9.00;99.90;;;;;;4962714;28;21422;-75
2021/01/12 05:01:32;;;;;;;1.33;1.20;;;-9.10;99.90;;;;;;4958361;28;20286;-75
2021/01/12 05:04:03;;;;;;;2.07;1.40;;;-9.10;99.90;;;;;;4962466;28;20236;-75
2021/01/12 05:06:29;;;;;;;1.97;1.40;;;-9.20;99.90;;;;;;4957500;28;20207;-76
2021/01/12 05:08:56;;;;;;;1.97;1.30;;;-9.10;99.90;;;;;;4962859;28;20200;-76
2021/01/12 05:11:32;;;;;;;1.30;1.20;;;-9.10;99.90;;;;;;4964046;28;20367;-75
2021/01/12 05:14:06;;;;;;;2.03;1.37;;;-9.20;99.90;;;;;;4966596;28;20196;-75
2021/01/12 05:16:44;;;;;;;1.63;1.20;;;-9.20;99.90;;;;;;4960797;28;20215;-77
2021/01/12 05:19:12;;;;;;;1.20;1.00;;;-9.30;99.90;;;;;;4961802;28;20250;-76
2021/01/12 05:21:40;;;;;;;1.63;1.20;;;-9.30;99.90;;;;;;4963528;28;20223;-75
2021/01/12 05:24:09;;;;;;;1.33;1.23;;;-9.40;99.90;;;;;;4965582;28;20208;-75
2021/01/12 05:26:37;;;;;;;2.47;1.40;;;-9.40;99.90;;;;;;4964127;28;20204;-76
2021/01/12 05:29:05;;;;;;;1.50;1.30;;;-9.50;99.90;;;;;;4962452;28;20211;-75
2021/01/12 05:31:31;;;;;;;1.27;1.17;;;-9.40;99.90;;;;;;4963900;28;20243;-75
2021/01/12 05:34:03;;;;;;;1.40;1.30;;;-9.60;99.90;;;;;;4964453;28;20657;-75
2021/01/12 05:36:31;;;;;;;1.20;1.10;;;-9.70;99.90;;;;;;4962729;28;20204;-75
2021/01/12 05:39:03;;;;;;;1.20;1.10;;;-9.80;99.90;;;;;;4963406;28;20204;-75
2021/01/12 05:41:29;;;;;;;2.20;1.33;;;-9.90;99.90;;;;;;4963297;28;20320;-75
2021/01/12 05:43:56;;;;;;;2.03;1.30;;;-10.00;99.90;;;;;;4962902;28;20327;-76
2021/01/12 05:46:22;;;;;;;1.37;1.27;;;-10.00;99.90;;;;;;4964512;28;20208;-75
2021/01/12 05:48:48;;;;;;;1.83;1.40;;;-10.00;99.90;;;;;;4964512;28;20232;-75
2021/01/12 05:51:16;;;;;;;1.43;1.20;;;-10.00;99.90;;;;;;4961807;28;20232;-75
2021/01/12 05:53:48;;;;;;;1.40;1.30;;;-10.00;99.90;;;;;;4959989;28;20587;-75
2021/01/12 05:56:21;;;;;;;1.30;1.20;;;-10.00;99.90;;;;;;4964268;28;20215;-75
2021/01/12 05:58:55;;;;;;;2.03;1.30;;;-10.10;99.90;;;;;;4964310;28;20199;-74
2021/01/12 06:01:49;;;;;;;1.80;1.30;;;-10.10;99.90;;;;;;4938805;28;20207;-76
2021/01/12 06:04:15;;;;;;;2.13;1.13;;;-10.20;99.90;;;;;;4960214;28;20789;-77
2021/01/12 06:06:43;;;;;;;1.60;1.30;;;-10.30;99.90;;;;;;4959867;28;20219;-75
2021/01/12 06:09:10;;;;;;;3.07;1.40;;;-10.30;99.90;;;;;;4959505;28;20988;-76
2021/01/12 06:11:41;;;;;;;2.50;1.60;;;-10.30;99.90;;;;;;4961683;28;20208;-76
2021/01/12 06:14:12;;;;;;;2.03;1.30;;;-10.40;99.90;;;;;;4964326;28;20227;-77
2021/01/12 06:16:42;;;;;;;1.60;1.30;;;-10.30;99.90;;;;;;4959259;28;20200;-76
2021/01/12 06:19:19;;;;;;;1.30;1.20;;;-10.50;99.90;;;;;;4960929;28;20677;-75
2021/01/12 06:22:04;;;;;;;1.30;1.20;;;-10.50;99.90;;;;;;4965205;28;20708;-76
2021/01/12 06:24:36;;;;;;;1.63;1.27;;;-10.50;99.90;;;;;;4963194;28;20266;-76
2021/01/12 06:27:18;;;;;;;1.30;1.20;;;-10.40;99.90;;;;;;4965616;28;20274;-76
2021/01/12 06:29:49;;;;;;;1.77;1.40;;;-10.50;99.90;;;;;;4965593;28;20200;-76
2021/01/12 06:32:23;;;;;;;1.40;1.30;;;-10.50;99.90;;;;;;4966891;28;20232;-76
2021/01/12 06:34:50;;;;;;;2.20;1.47;;;-10.50;99.90;;;;;;4966323;28;20192;-76
2021/01/12 06:37:17;;;;;;;1.43;1.30;;;-10.60;99.90;;;;;;4968235;28;20207;-76
2021/01/12 06:39:49;;;;;;;5.27;1.50;;;-10.60;99.90;;;;;;4961826;28;20208;-76
2021/01/12 06:42:20;;;;;;;1.90;1.40;;;-10.60;99.90;;;;;;4957516;28;20253;-76
2021/01/12 06:44:51;;;;;;;1.90;1.30;;;-10.60;99.90;;;;;;4966318;28;20634;-77
2021/01/12 06:47:21;;;;;;;1.50;1.40;;;-10.60;99.90;;;;;;4969412;28;20211;-77
2021/01/12 06:49:47;;;;;;;3.73;1.40;;;-10.60;99.90;;;;;;4966059;28;20718;-76
2021/01/12 06:52:14;;;;;;;2.60;1.50;;;-10.60;99.90;;;;;;4962522;28;20204;-76
2021/01/12 06:54:41;;;;;;;3.23;1.50;;;-10.60;99.90;;;;;;4958274;28;20287;-75
2021/01/12 06:57:09;;;;;;;2.20;1.50;;;-10.60;99.90;;;;;;4965238;28;21051;-76
2021/01/12 06:59:54;;;;;;;1.60;1.40;;;-10.60;99.90;;;;;;4959967;28;20746;-76
2021/01/12 07:02:28;;;;;;;1.47;1.30;;;-10.60;99.90;;;;;;4964228;28;20200;-76
2021/01/12 07:05:06;;;;;;;3.40;1.60;;;-10.60;99.90;;;;;;4963761;28;20243;-76
2021/01/12 07:07:36;;;;;;;1.83;1.40;;;-10.60;99.90;;;;;;4968112;28;20214;-77
2021/01/12 07:10:12;;;;;;;2.03;1.53;;;-10.70;99.90;;;;;;4960152;28;20553;-77
2021/01/12 07:12:39;;;;;;;2.17;1.60;;;-10.80;99.90;;;;;;4962981;28;20219;-76
2021/01/12 07:15:15;;;;;;;1.47;1.37;;;-10.80;99.90;;;;;;4966350;28;20200;-77
2021/01/12 07:17:49;;;;;;;1.50;1.40;;;-10.90;99.90;;;;;;4961899;28;20235;-77
2021/01/12 07:20:26;;;;;;;2.77;1.33;;;-10.90;99.90;;;;;;4958297;28;20493;-76
2021/01/12 07:23:01;;;;;;;3.10;1.83;;;-10.90;99.90;;;;;;4965013;28;20203;-76
2021/01/12 07:25:36;;;;;;;1.57;1.40;;;-11.00;99.90;;;;;;4959147;28;20208;-76
2021/01/12 07:28:14;;;;;;;3.10;1.40;;;-10.90;99.90;;;;;;4966067;28;20234;-77
2021/01/12 07:30:42;;;;;;;3.40;1.40;;;-10.90;99.90;;;;;;4960149;28;21235;-76
2021/01/12 07:33:29;;;;;;;2.20;1.70;;;-10.90;99.90;;;;;;4961514;28;20264;-77
2021/01/12 07:35:59;;;;;;;2.03;1.30;;;-10.90;99.90;;;;;;4963156;28;20230;-76
2021/01/12 07:38:30;;;;;;;2.87;1.37;;;-10.90;99.90;;;;;;4966398;28;20241;-76
2021/01/12 07:40:58;;;;;;;1.40;1.30;;;-10.90;99.90;;;;;;4968574;28;20558;-76
2021/01/12 07:43:24;;;;;;;2.43;1.70;;;-11.00;99.90;;;;;;4965439;28;20549;-77
2021/01/12 07:45:55;;;;;;;1.50;1.40;;;-11.00;99.90;;;;;;4961382;28;20654;-77
2021/01/12 07:48:21;;;;;;;1.97;1.53;;;-11.10;99.90;;;;;;4965061;28;20351;-77
2021/01/12 07:50:49;;;;;;;2.13;1.47;;;-11.10;99.90;;;;;;4965546;28;21047;-77
2021/01/12 07:53:15;;;;;;;1.50;1.40;;;-11.20;99.90;;;;;;4964928;28;20200;-76
2021/01/12 07:55:41;;;;;;;1.53;1.30;;;-11.10;99.90;;;;;;4962220;28;20243;-77
2021/01/12 07:58:11;;;;;;;2.33;1.40;;;-11.00;99.90;;;;;;4962034;28;20233;-78
2021/01/12 08:00:37;;;;;;;2.53;1.60;;;-10.90;99.90;;;;;;4961139;28;20666;-77
2021/01/12 08:03:04;;;;;;;3.27;1.47;;;-10.70;99.90;;;;;;4947386;28;20212;-76
2021/01/12 08:05:31;;;;;;;3.13;1.87;;;-10.60;99.90;;;;;;4962030;28;20232;-76
2021/01/12 08:08:04;;;;;;;1.50;1.40;;;-10.40;99.90;;;;;;4958635;28;20212;-76
2021/01/12 08:10:32;;;;;;;3.20;1.83;;;-10.30;99.90;;;;;;4966481;28;20287;-77
2021/01/12 08:13:03;;;;;;;5.10;3.00;;;-10.20;99.90;;;;;;4962839;28;20686;-76
2021/01/12 08:15:29;;;;;;;6.40;3.40;;;-10.10;99.90;;;;;;4969084;28;20529;-76
2021/01/12 08:17:55;;;;;;;42.97;14.03;;;-10.10;99.90;;;;;;4962698;28;20215;-77
2021/01/12 08:20:20;;;;;;;37.40;13.57;;;-10.20;99.90;;;;;;4964060;28;20196;-75
2021/01/12 08:22:51;;;;;;;23.03;8.00;;;-10.10;99.90;;;;;;4965688;28;20236;-76
2021/01/12 08:25:17;;;;;;;23.73;9.97;;;-10.10;99.90;;;;;;4960102;28;20196;-77
2021/01/12 08:27:50;;;;;;;19.87;8.23;;;-10.00;99.90;;;;;;4961142;28;20723;-75
2021/01/12 08:30:21;;;;;;;25.10;8.90;;;-9.90;99.90;;;;;;4962605;28;20200;-76
2021/01/12 08:33:06;;;;;;;20.80;7.60;;;-9.80;99.90;;;;;;4962669;28;20218;-75
2021/01/12 08:35:37;;;;;;;22.80;8.37;;;-9.80;99.90;;;;;;4942654;28;20367;-76
2021/01/12 08:38:10;;;;;;;17.57;6.77;;;-9.80;99.90;;;;;;4958616;28;20708;-76
2021/01/12 08:40:36;;;;;;;18.07;7.33;;;-9.80;99.90;;;;;;4962425;28;20249;-75
2021/01/12 08:43:01;;;;;;;18.87;7.83;;;-9.70;99.90;;;;;;4962362;28;20874;-78
2021/01/12 08:45:33;;;;;;;19.50;8.07;;;-9.70;99.90;;;;;;4957390;28;20240;-77
2021/01/12 08:48:15;;;;;;;19.27;7.53;;;-9.60;99.90;;;;;;4965395;28;20212;-77
2021/01/12 08:50:45;;;;;;;11.43;5.23;;;-9.50;99.90;;;;;;4965454;28;20199;-77
2021/01/12 08:53:17;;;;;;;15.07;5.27;;;-9.50;99.90;;;;;;4962764;28;20191;-75
2021/01/12 08:55:45;;;;;;;12.13;5.00;;;-9.40;99.90;;;;;;4962312;28;20301;-77
2021/01/12 08:58:11;;;;;;;7.73;3.23;;;-9.50;99.90;;;;;;4965625;28;20696;-76
2021/01/12 09:00:39;;;;;;;5.10;3.00;;;-9.50;99.90;;;;;;4957907;28;20278;-76
2021/01/12 09:03:06;;;;;;;6.27;3.00;;;-9.60;99.90;;;;;;4963207;28;20199;-76
2021/01/12 09:05:41;;;;;;;2.63;2.03;;;-9.60;99.90;;;;;;4960058;28;20238;-76
2021/01/12 09:08:09;;;;;;;6.77;2.53;;;-9.60;99.90;;;;;;4978002;28;20294;-76
2021/01/12 09:10:36;;;;;;;6.73;2.70;;;-9.60;99.90;;;;;;4981027;28;20476;-77
2021/01/12 09:13:06;;;;;;;6.10;2.70;;;-9.60;99.90;;;;;;4959586;28;20188;-77
2021/01/12 09:15:35;;;;;;;3.60;2.07;;;-9.50;99.90;;;;;;4959077;28;20197;-76
2021/01/12 09:18:13;;;;;;;4.13;2.53;;;-9.50;99.90;;;;;;4963625;28;20203;-76
2021/01/12 09:20:39;;;;;;;3.83;2.50;;;-9.50;99.90;;;;;;4963278;28;20211;-77
2021/01/12 09:23:06;;;;;;;4.73;2.30;;;-9.40;99.90;;;;;;4961898;28;20199;-77
2021/01/12 09:25:33;;;;;;;3.33;1.80;;;-9.30;99.90;;;;;;4959913;28;20211;-77
2021/01/12 09:28:26;;;;;;;3.50;1.70;;;-9.20;99.90;;;;;;4961626;28;20217;-77
2021/01/12 09:31:02;;;;;;;3.43;1.93;;;-9.10;99.90;;;;;;4961058;28;20223;-76
2021/01/12 09:33:28;;;;;;;3.23;2.00;;;-8.90;99.90;;;;;;4977501;28;20283;-77
2021/01/12 09:36:14;;;;;;;1.77;1.43;;;-8.80;99.90;;;;;;4958592;28;20212;-77
2021/01/12 09:38:48;;;;;;;3.40;1.70;;;-8.70;99.90;;;;;;4960746;28;20200;-76
2021/01/12 09:41:16;;;;;;;2.00;1.60;;;-8.60;99.90;;;;;;4959588;28;20220;-77
2021/01/12 09:43:43;;;;;;;5.83;1.73;;;-8.50;99.90;;;;;;4959002;28;20215;-76
2021/01/12 09:46:10;;;;;;;3.70;1.87;;;-8.40;99.90;;;;;;4968903;28;20262;-77
2021/01/12 09:48:37;;;;;;;3.20;1.80;;;-8.20;99.90;;;;;;4967494;28;20205;-76
2021/01/12 09:51:03;;;;;;;3.60;1.87;;;-8.10;99.90;;;;;;4965163;28;20392;-76
2021/01/12 09:53:29;;;;;;;2.53;1.90;;;-7.90;99.90;;;;;;4966152;28;20207;-76
2021/01/12 09:55:56;;;;;;;2.90;2.20;;;-7.70;99.90;;;;;;4960966;28;20196;-77
2021/01/12 09:58:22;;;;;;;3.37;2.10;;;-7.60;99.90;;;;;;4964300;28;20211;-77
2021/01/12 10:00:47;;;;;;;5.67;2.10;;;-7.40;99.90;;;;;;4965021;28;20211;-77
2021/01/12 10:03:13;;;;;;;2.93;1.87;;;-7.30;99.90;;;;;;4963771;28;20207;-76
2021/01/12 10:05:40;;;;;;;2.27;1.83;;;-7.20;99.90;;;;;;4969268;28;20375;-76
2021/01/12 10:08:05;;;;;;;3.20;1.80;;;-7.10;99.90;;;;;;4966594;28;20219;-76
2021/01/12 10:10:32;;;;;;;4.43;2.00;;;-7.00;99.90;;;;;;4966648;28;20778;-76
2021/01/12 10:12:58;;;;;;;6.03;2.47;;;-6.80;99.90;;;;;;4964961;28;20258;-77
2021/01/12 10:15:24;;;;;;;5.67;2.33;;;-6.80;99.90;;;;;;4963676;28;20208;-76
2021/01/12 10:17:49;;;;;;;3.63;2.10;;;-6.60;99.90;;;;;;4965692;28;20231;-77
2021/01/12 10:20:15;;;;;;;3.87;2.17;;;-6.60;99.90;;;;;;4963053;28;20196;-77
2021/01/12 10:22:41;;;;;;;5.03;2.70;;;-6.60;99.90;;;;;;4964701;28;20235;-77
2021/01/12 10:25:07;;;;;;;5.00;2.40;;;-6.60;99.90;;;;;;4966923;28;20204;-76
2021/01/12 10:27:35;;;;;;;6.13;2.63;;;-6.60;99.90;;;;;;4958786;28;20698;-77
2021/01/12 10:30:03;;;;;;;4.23;2.10;;;-6.50;99.90;;;;;;4964513;28;20311;-77
2021/01/12 10:32:28;;;;;;;4.60;2.27;;;-6.50;99.90;;;;;;4961401;28;20196;-77
2021/01/12 10:34:54;;;;;;;3.30;2.00;;;-6.40;99.90;;;;;;4962583;28;20204;-76
2021/01/12 10:37:20;;;;;;;8.10;2.40;;;-6.30;99.90;;;;;;4963986;28;20207;-76
2021/01/12 10:39:46;;;;;;;3.50;2.07;;;-6.30;99.90;;;;;;4966969;28;20200;-76
2021/01/12 10:42:11;;;;;;;4.60;2.20;;;-6.20;99.90;;;;;;4964895;28;20303;-77
2021/01/12 10:44:37;;;;;;;7.93;2.25;;;-6.10;99.90;;;;;;4965059;28;20799;-78
2021/01/12 10:47:03;;;;;;;4.07;2.28;;;-6.00;99.90;;;;;;4963560;28;20312;-77
2021/01/12 10:49:29;;;;;;;3.30;1.90;;;-6.00;99.90;;;;;;4961317;28;21088;-77
2021/01/12 10:52:03;;;;;;;5.23;2.10;;;-5.90;99.90;;;;;;4966721;28;20200;-77
2021/01/12 10:54:30;;;;;;;3.97;2.03;;;-5.80;99.90;;;;;;4965250;28;20207;-77
2021/01/12 10:56:56;;;;;;;3.17;2.10;;;-5.60;99.90;;;;;;4967330;28;20242;-77
2021/01/12 10:59:23;;;;;;;3.83;2.10;;;-5.60;99.90;;;;;;4964597;28;20681;-77
2021/01/12 11:02:00;;;;;;;3.42;1.90;;;-5.40;99.90;;;;;;4964178;28;20212;-77
2021/01/12 11:04:26;;;;;;;4.22;2.20;;;-5.40;99.90;;;;;;4966173;28;20234;-76
2021/01/12 11:06:54;;;;;;;2.40;1.65;;;-5.40;99.90;;;;;;4957221;28;20212;-76
2021/01/12 11:09:20;;;;;;;2.60;1.80;;;-5.40;99.90;;;;;;4966588;28;20214;-76
2021/01/12 11:11:48;;;;;;;2.90;1.92;;;-5.50;99.90;;;;;;4961502;28;20205;-75
2021/01/12 11:14:18;;;;;;;3.37;1.77;;;-5.40;99.90;;;;;;4965743;28;20282;-75
2021/01/12 11:16:44;;;;;;;4.28;1.92;;;-5.40;99.90;;;;;;4964686;28;20425;-77
2021/01/12 11:19:11;;;;;;;3.40;2.13;;;-5.30;99.90;;;;;;4963027;28;20210;-76
2021/01/12 11:21:44;;;;;;;3.83;1.90;;;-5.40;99.90;;;;;;4969654;28;20196;-76
2021/01/12 11:24:12;;;;;;;4.68;1.90;;;-5.50;99.90;;;;;;4964058;28;20204;-75
2021/01/12 11:26:39;;;;;;;3.85;1.90;;;-5.60;99.90;;;;;;4964758;28;20247;-77
2021/01/12 11:29:05;;;;;;;2.78;1.90;;;-5.60;99.90;;;;;;4965340;28;20215;-76
2021/01/12 11:31:31;;;;;;;3.38;1.65;;;-5.70;99.90;;;;;;4964759;28;20689;-75
2021/01/12 11:33:57;;;;;;;2.15;1.80;;;-5.70;99.90;;;;;;4963807;28;20267;-75
2021/01/12 11:36:23;;;;;;;2.17;1.80;;;-5.80;99.90;;;;;;4956127;28;20698;-77
2021/01/12 11:38:49;;;;;;;3.55;2.20;;;-5.90;99.90;;;;;;4961325;28;20291;-76
2021/01/12 11:41:15;;;;;;;2.53;1.70;;;-6.00;99.90;;;;;;4963775;28;20596;-75
2021/01/12 11:43:41;;;;;;;2.40;1.73;;;-6.10;99.90;;;;;;4963780;28;20200;-77
2021/01/12 11:46:07;;;;;;;2.90;1.90;;;-6.20;99.90;;;;;;4963986;28;20766;-76
2021/01/12 11:48:33;;;;;;;3.37;1.70;;;-6.30;99.90;;;;;;4968874;28;20543;-78
2021/01/12 11:51:00;;;;;;;3.50;1.73;;;-6.40;99.90;;;;;;4960461;28;20192;-76
2021/01/12 11:53:25;;;;;;;3.53;1.70;;;-6.60;99.90;;;;;;4967792;28;20619;-76
2021/01/12 11:55:51;;;;;;;2.27;1.50;;;-6.80;99.90;;;;;;4962833;28;20205;-79
2021/01/12 11:58:17;;;;;;;2.63;1.70;;;-7.00;99.90;;;;;;4965765;28;20196;-76
2021/01/12 12:00:43;;;;;;;6.50;2.00;;;-7.10;99.90;;;;;;4959441;28;20685;-76
2021/01/12 12:03:09;;;;;;;3.73;1.80;;;-7.10;99.90;;;;;;4963085;28;20200;-76
2021/01/12 12:05:35;;;;;;;2.37;1.60;;;-7.20;99.90;;;;;;4963056;28;20657;-75
2021/01/12 12:08:01;;;;;;;2.60;1.70;;;-7.30;99.90;;;;;;4966390;28;20219;-76
2021/01/12 12:10:27;;;;;;;2.13;1.77;;;-7.40;99.90;;;;;;4959508;28;20208;-75
2021/01/12 12:12:53;;;;;;;1.80;1.43;;;-7.40;99.90;;;;;;4963166;28;20522;-76
2021/01/12 12:15:20;;;;;;;2.87;1.70;;;-7.40;99.90;;;;;;4961001;28;20200;-77
2021/01/12 12:17:46;;;;;;;1.70;1.60;;;-7.50;99.90;;;;;;4966278;28;20302;-75
2021/01/12 12:20:14;;;;;;;2.80;1.80;;;-7.60;99.90;;;;;;4954310;28;20254;-77
2021/01/12 12:22:40;;;;;;;2.80;1.73;;;-7.50;99.90;;;;;;4964827;28;20212;-76
2021/01/12 12:25:10;;;;;;;3.07;1.60;;;-7.50;99.90;;;;;;4964234;28;20732;-76
2021/01/12 12:27:36;;;;;;;2.27;1.60;;;-7.60;99.90;;;;;;4961987;28;20227;-76
2021/01/12 12:30:03;;;;;;;1.77;1.60;;;-7.60;99.90;;;;;;4966749;28;20204;-76
2021/01/12 12:32:29;;;;;;;2.47;1.67;;;-7.70;99.90;;;;;;4968214;28;20228;-75
2021/01/12 12:34:56;;;;;;;3.50;2.23;;;-7.70;99.90;;;;;;4960391;28;20250;-76
2021/01/12 12:37:22;;;;;;;2.53;1.70;;;-7.70;99.90;;;;;;4958631;28;20201;-77
2021/01/12 12:39:51;;;;;;;3.23;1.80;;;-7.70;99.90;;;;;;4964425;28;20203;-76
2021/01/12 12:42:23;;;;;;;3.10;1.77;;;-7.80;99.90;;;;;;5106336;27;20499;-69
2021/01/12 12:44:48;;;;;;;3.77;1.73;;;-7.80;99.90;;;;;;5088519;28;20196;-68
2021/01/12 12:47:15;;;;;;;3.77;1.70;;;-7.80;99.90;;;;;;5077183;28;20701;-68
2021/01/12 12:49:41;;;;;;;5.43;1.67;;;-7.90;99.90;;;;;;5084219;28;20848;-69